Airfield :
LOGIN :

Register | Disclaimer

   EN    FR    IT 

 










Legend :    VFR   Marginal VFR   IFR   Intensive IFR   Very Intensive IFR
Visi :
Ceiling :
>= 8 km
>= 3000ft
5 to 8 km
1000 to 3000 ft
1500m to 5 km
500 to 1000 ft
800 to 1500m
200 to 500 ft
< 800m
< 200 ft
Symbols :   Thunderstorms  Fog  Heavy snow  Heavy precipitations  Wind > 20 kt
SIGMETs :     Misc.  Thunderstorms  Icing  Turbulence  Mountain Waves  Volcanic Ashes







- Airport Elevation : 7 ft
- IATA code : POW


LJPZ - Portoroz

CURRENT METAR :
  • 240530Z 12008KT 5000 BR FEW017 08/07 Q1022

EXPIRED METARs :
  • 240500Z 12007KT 5000 BR FEW017 08/07 Q1022
  • 240430Z AUTO 12006KT 5000 NCD 08/07 Q1021
  • 240400Z AUTO 12005KT 7000 NCD 09/08 Q1022
  • 240330Z AUTO 12005KT 6000 FEW022/// 09/08 Q1021
  • 240300Z AUTO 12004KT 9999 BKN020/// 09/08 Q1021

TAF TAF LJPZ
Valid from the 24 at 06:00 until the 24 at 15:00 UTC


240500Z 2406/2415 12004KT 9999 SCT060
PROB40
TEMPO 2406/2409 7000 BKN020
TEMPO 2409/2415 BKN060
BECMG 2410/2412 30005KT
No reported NOTAMs for that airfield.



MET'MAP, your aeronautical weather chart ! - Copyright ORBIFLY December 2007 - Disclaimer

ORBIFLY MET'MAP TEAM :

Programming & Development : Alexandra Zaïnal
Concept & Development : Baudouin d'Aumeries
Co-Development & Prog : Marc-Olivier Méhu
Technical & hardware support : Manuel Goepfert

Contact : metmap@orbifly.com




SOURCES & CREDITS :

   NOAA